Time;durP1;ratioP1;P1;durP2;ratioP2;P2;SDS_P1;SDS_P2;PMS_P1;PMS_P2;Temp;Humidity;BMP_temperature;BMP_pressure;BME280_temperature;BME280_humidity;BME280_pressure;Samples;Min_cycle;Max_cycle;Signal;HPM_P1;HPM_P2
2023/09/12 00:02:25;;;;;;;;;;;;;;;24.30;42.09;100942.97;7394914;19;1856;-45
2023/09/12 00:04:53;;;;;;;;;;;;;;;24.19;42.44;100925.19;7395420;19;1581;-45
2023/09/12 00:07:21;;;;;;;;;;;;;;;24.17;42.32;100916.41;7394639;19;1431;-43
2023/09/12 00:09:52;;;;;;;;;;;;;;;24.07;42.67;100921.97;7395874;19;1425;-49
2023/09/12 00:12:24;;;;;;;;;;;;;;;24.07;42.70;100926.53;7394961;19;1381;-45
2023/09/12 00:14:53;;;;;;;;;;;;;;;24.05;42.70;100907.78;7395037;19;1391;-45
2023/09/12 00:17:21;;;;;;;;;;;;;;;24.07;42.71;100918.44;7394200;19;1477;-45
2023/09/12 00:19:49;;;;;;;;;;;;;;;24.07;42.60;100913.84;7395863;19;1482;-45
2023/09/12 00:22:18;;;;;;;;;;;;;;;24.08;42.72;100917.44;7394611;19;1851;-45
2023/09/12 00:24:46;;;;;;;;;;;;;;;24.10;42.84;100924.34;7394815;19;1454;-45
2023/09/12 00:27:17;;;;;;;;;;;;;;;24.15;42.58;100930.13;7395307;19;1565;-45
2023/09/12 00:29:45;;;;;;;;;;;;;;;24.18;42.33;100923.53;7394141;19;2150;-45
2023/09/12 00:32:13;;;;;;;;;;;;;;;24.15;42.86;100930.13;7396194;19;1587;-44
2023/09/12 00:34:42;;;;;;;;;;;;;;;24.12;42.94;100918.78;7394973;19;2113;-45
2023/09/12 00:37:11;;;;;;;;;;;;;;;24.12;42.90;100921.50;7394882;19;1660;-45
2023/09/12 00:39:40;;;;;;;;;;;;;;;24.13;42.84;100934.84;7394507;19;1431;-45
2023/09/12 00:42:09;;;;;;;;;;;;;;;24.06;43.01;100922.16;7394131;19;1874;-45
2023/09/12 00:44:40;;;;;;;;;;;;;;;24.02;42.83;100929.75;7394948;19;1612;-45
2023/09/12 00:47:08;;;;;;;;;;;;;;;23.97;43.22;100932.06;7394657;19;1570;-44
2023/09/12 00:49:37;;;;;;;;;;;;;;;23.99;42.86;100935.44;7379095;19;1569;-45
2023/09/12 00:52:06;;;;;;;;;;;;;;;23.94;43.03;100932.41;7394924;19;1618;-45
2023/09/12 00:54:34;;;;;;;;;;;;;;;23.91;43.08;100928.16;7395055;19;1826;-45
2023/09/12 00:57:02;;;;;;;;;;;;;;;23.87;43.13;100920.56;7395222;19;1632;-45
2023/09/12 00:59:31;;;;;;;;;;;;;;;23.91;43.02;100930.88;7393714;19;1731;-45
2023/09/12 01:02:02;;;;;;;;;;;;;;;23.86;43.31;100927.00;7394537;19;1812;-45
2023/09/12 01:04:32;;;;;;;;;;;;;;;23.88;43.36;100930.38;7393502;19;1464;-45
2023/09/12 01:07:01;;;;;;;;;;;;;;;23.88;43.36;100924.97;7394018;19;1567;-44
2023/09/12 01:09:29;;;;;;;;;;;;;;;23.87;43.37;100931.38;7393841;19;1728;-45
2023/09/12 01:11:58;;;;;;;;;;;;;;;23.85;43.32;100934.22;7397216;19;1753;-45
2023/09/12 01:14:26;;;;;;;;;;;;;;;23.82;43.38;100935.41;7401371;19;1395;-45
2023/09/12 01:16:55;;;;;;;;;;;;;;;23.87;43.43;100934.06;7401715;19;1588;-44
2023/09/12 01:19:26;;;;;;;;;;;;;;;23.87;43.29;100936.78;7399031;19;2473;-43
2023/09/12 01:22:13;;;;;;;;;;;;;;;23.84;43.67;100956.84;7401480;19;1405;-45
2023/09/12 01:24:54;;;;;;;;;;;;;;;23.88;43.56;100938.47;7400666;19;1498;-45
2023/09/12 01:27:28;;;;;;;;;;;;;;;23.85;43.63;100945.03;7402026;19;1274;-45
2023/09/12 01:29:59;;;;;;;;;;;;;;;23.80;43.42;100937.44;7401501;19;1566;-45
2023/09/12 01:32:27;;;;;;;;;;;;;;;23.82;43.52;100940.81;7400729;19;1957;-45
2023/09/12 01:34:55;;;;;;;;;;;;;;;23.82;43.71;100945.38;7401178;19;1804;-45
2023/09/12 01:37:24;;;;;;;;;;;;;;;23.79;43.64;100948.38;7401163;19;1743;-44
2023/09/12 01:39:52;;;;;;;;;;;;;;;23.74;43.78;100927.25;7399965;19;1533;-45
2023/09/12 01:42:23;;;;;;;;;;;;;;;23.87;43.36;100934.06;7399844;19;1886;-45
2023/09/12 01:44:59;;;;;;;;;;;;;;;23.88;43.49;100930.38;7398499;19;1398;-45
2023/09/12 01:47:28;;;;;;;;;;;;;;;23.83;43.39;100941.66;7399320;19;1727;-44
2023/09/12 01:49:58;;;;;;;;;;;;;;;23.80;43.49;100937.44;7385117;19;1426;-45
2023/09/12 01:52:27;;;;;;;;;;;;;;;23.73;43.91;100933.66;7400574;19;1831;-44
2023/09/12 01:54:55;;;;;;;;;;;;;;;23.73;43.60;100933.66;7400182;19;1728;-44
2023/09/12 01:57:24;;;;;;;;;;;;;;;23.66;43.84;100935.31;7399774;19;1521;-45
2023/09/12 01:59:55;;;;;;;;;;;;;;;23.64;43.97;100937.34;7399857;19;1776;-44
2023/09/12 02:02:23;;;;;;;;;;;;;;;23.72;43.76;100934.66;7400125;19;1840;-44
2023/09/12 02:04:56;;;;;;;;;;;;;;;23.68;43.72;100933.31;7400209;19;1561;-45
2023/09/12 02:07:26;;;;;;;;;;;;;;;23.66;43.81;100945.28;7399740;19;1495;-45
2023/09/12 02:09:55;;;;;;;;;;;;;;;23.66;43.81;100945.28;7399908;19;1675;-45
2023/09/12 02:12:23;;;;;;;;;;;;;;;23.62;43.79;100939.34;7399930;19;1535;-45
2023/09/12 02:14:51;;;;;;;;;;;;;;;23.65;44.13;100947.13;7396291;19;1446;-45
2023/09/12 02:17:22;;;;;;;;;;;;;;;23.63;43.90;100943.72;7399425;19;1695;-45
2023/09/12 02:19:51;;;;;;;;;;;;;;;23.58;44.17;100932.59;7399368;19;1371;-45
2023/09/12 02:22:19;;;;;;;;;;;;;;;23.63;43.89;100938.34;7398560;19;1411;-44
2023/09/12 02:24:47;;;;;;;;;;;;;;;23.56;43.92;100945.41;7395834;19;1837;-43
2023/09/12 02:27:15;;;;;;;;;;;;;;;23.57;43.87;100947.09;7400317;19;1490;-41
2023/09/12 02:29:44;;;;;;;;;;;;;;;23.57;44.00;100947.91;7399463;19;1513;-43
2023/09/12 02:32:12;;;;;;;;;;;;;;;23.53;43.94;100951.09;7399177;19;1795;-43
2023/09/12 02:34:43;;;;;;;;;;;;;;;23.55;44.16;100938.28;7398829;19;1465;-42
2023/09/12 02:37:12;;;;;;;;;;;;;;;23.53;43.95;100948.41;7399069;19;1653;-45
2023/09/12 02:39:40;;;;;;;;;;;;;;;23.53;44.23;100951.94;7398626;19;1624;-44
2023/09/12 02:42:08;;;;;;;;;;;;;;;23.53;43.88;100956.50;7397711;19;1668;-45
2023/09/12 02:44:37;;;;;;;;;;;;;;;23.52;43.90;100950.28;7396519;19;1892;-45
2023/09/12 02:47:06;;;;;;;;;;;;;;;23.49;43.97;100953.28;7398366;19;1833;-44
2023/09/12 02:49:34;;;;;;;;;;;;;;;23.48;43.99;100956.16;7384801;19;1614;-46
2023/09/12 02:52:05;;;;;;;;;;;;;;;23.51;44.04;100963.91;7399278;19;1644;-46
2023/09/12 02:54:33;;;;;;;;;;;;;;;23.47;43.91;100959.84;7398191;19;1593;-44
2023/09/12 02:57:02;;;;;;;;;;;;;;;23.48;43.81;100964.25;7398439;19;1840;-45
2023/09/12 02:59:30;;;;;;;;;;;;;;;23.48;44.07;100983.16;7396750;19;2553;-45
2023/09/12 03:01:58;;;;;;;;;;;;;;;23.43;44.05;100960.16;7397102;19;1747;-45
2023/09/12 03:04:28;;;;;;;;;;;;;;;23.42;43.96;100966.59;7395801;19;1861;-45
2023/09/12 03:06:56;;;;;;;;;;;;;;;23.42;44.27;100955.78;7398072;19;1605;-45
2023/09/12 03:09:27;;;;;;;;;;;;;;;23.48;43.78;100964.25;7398267;19;1446;-45
2023/09/12 03:11:55;;;;;;;;;;;;;;;23.43;43.96;100962.84;7397689;19;1466;-45
2023/09/12 03:14:23;;;;;;;;;;;;;;;23.41;44.13;100970.28;7396418;19;1967;-45
2023/09/12 03:16:52;;;;;;;;;;;;;;;23.42;43.88;100971.97;7397675;19;1561;-45
2023/09/12 03:19:20;;;;;;;;;;;;;;;23.41;43.92;100964.88;7397259;19;1509;-45
2023/09/12 03:21:48;;;;;;;;;;;;;;;23.38;44.15;100949.00;7398141;19;1576;-44
2023/09/12 03:24:18;;;;;;;;;;;;;;;23.37;44.00;100965.34;7396906;19;1857;-45
2023/09/12 03:26:49;;;;;;;;;;;;;;;23.36;43.91;100967.22;7397016;19;1653;-45
2023/09/12 03:29:17;;;;;;;;;;;;;;;23.33;44.09;100981.03;7396228;19;1477;-45
2023/09/12 03:31:45;;;;;;;;;;;;;;;23.39;43.91;100979.53;7396243;19;1569;-45
2023/09/12 03:34:13;;;;;;;;;;;;;;;23.30;44.00;100967.88;7396509;19;1409;-44
2023/09/12 03:36:42;;;;;;;;;;;;;;;23.32;44.03;100983.91;7396501;19;1447;-44
2023/09/12 03:39:12;;;;;;;;;;;;;;;23.31;43.85;100977.63;7396446;19;1461;-45
2023/09/12 03:41:41;;;;;;;;;;;;;;;23.31;43.90;100976.78;7395324;19;1401;-45
2023/09/12 03:44:12;;;;;;;;;;;;;;;23.26;43.58;100971.88;7395468;19;1849;-45
2023/09/12 03:46:40;;;;;;;;;;;;;;;23.25;43.98;100972.88;7395686;19;1559;-45
2023/09/12 03:49:08;;;;;;;;;;;;;;;23.28;43.61;100971.69;7382038;19;1514;-44
2023/09/12 03:51:37;;;;;;;;;;;;;;;23.33;43.89;100985.56;7396111;19;1903;-45
2023/09/12 03:54:06;;;;;;;;;;;;;;;23.29;43.80;100971.53;7396766;19;1536;-44
2023/09/12 03:56:34;;;;;;;;;;;;;;;23.24;43.61;100973.91;7397076;19;1570;-44
2023/09/12 03:59:03;;;;;;;;;;;;;;;23.27;43.91;100973.56;7395910;19;1604;-44
2023/09/12 04:01:34;;;;;;;;;;;;;;;23.26;43.90;100971.88;7395112;19;1510;-45
2023/09/12 04:04:06;;;;;;;;;;;;;;;23.40;43.63;100984.78;7393268;19;1864;-45
2023/09/12 04:06:34;;;;;;;;;;;;;;;23.35;43.66;100975.47;7391146;19;1412;-45
2023/09/12 04:09:02;;;;;;;;;;;;;;;23.37;43.77;100979.69;7393471;19;1494;-45
2023/09/12 04:11:31;;;;;;;;;;;;;;;23.34;43.70;100979.19;7395256;19;1466;-45
2023/09/12 04:13:59;;;;;;;;;;;;;;;23.41;43.89;100991.84;7395683;19;1652;-44
2023/09/12 04:16:27;;;;;;;;;;;;;;;23.46;43.61;100990.53;7396228;19;1504;-45
2023/09/12 04:18:58;;;;;;;;;;;;;;;23.53;43.54;100999.69;7396912;19;1530;-44
2023/09/12 04:21:26;;;;;;;;;;;;;;;23.58;43.91;100986.59;7396523;19;1370;-45
2023/09/12 04:23:55;;;;;;;;;;;;;;;23.70;43.74;100992.53;7394820;19;1961;-44
2023/09/12 04:26:23;;;;;;;;;;;;;;;23.61;43.77;100991.63;7395861;19;1504;-45
2023/09/12 04:28:51;;;;;;;;;;;;;;;23.51;44.00;100996.31;7395791;19;1724;-45
2023/09/12 04:31:20;;;;;;;;;;;;;;;23.50;45.15;101000.03;7394773;19;1668;-44
2023/09/12 04:33:48;;;;;;;;;;;;;;;23.55;43.96;100997.69;7394310;19;1408;-45
2023/09/12 04:36:19;;;;;;;;;;;;;;;23.42;43.87;100996.28;7392759;19;1795;-45
2023/09/12 04:38:47;;;;;;;;;;;;;;;23.53;44.75;100999.69;7395437;19;1689;-45
2023/09/12 04:41:16;;;;;;;;;;;;;;;23.43;43.81;101008.75;7393159;19;1539;-45
2023/09/12 04:43:45;;;;;;;;;;;;;;;23.54;43.76;100996.00;7389694;19;1854;-45
2023/09/12 04:46:14;;;;;;;;;;;;;;;23.37;43.73;100995.88;7393810;19;1337;-44
2023/09/12 04:48:43;;;;;;;;;;;;;;;23.31;44.18;100999.22;7397462;19;1742;-45
2023/09/12 04:51:11;;;;;;;;;;;;;;;23.23;44.45;101000.00;7387543;19;1078;-45
2023/09/12 04:53:42;;;;;;;;;;;;;;;23.24;44.48;101006.28;7401860;19;1780;-44
2023/09/12 04:56:11;;;;;;;;;;;;;;;23.30;44.73;101016.44;7399878;19;1557;-45
2023/09/12 04:58:39;;;;;;;;;;;;;;;23.40;44.73;101019.03;7403271;19;1890;-44
2023/09/12 05:01:07;;;;;;;;;;;;;;;23.47;44.38;101006.56;7401540;19;1732;-44
2023/09/12 05:03:36;;;;;;;;;;;;;;;23.42;44.29;101015.16;7397940;19;1869;-45
2023/09/12 05:06:04;;;;;;;;;;;;;;;23.47;44.42;101011.97;7397612;19;1733;-45
2023/09/12 05:08:32;;;;;;;;;;;;;;;23.55;44.60;101025.50;7394969;19;1847;-44
2023/09/12 05:11:03;;;;;;;;;;;;;;;23.68;44.06;101032.38;7401312;19;1472;-45
2023/09/12 05:13:32;;;;;;;;;;;;;;;23.75;43.63;101004.53;7403934;19;1677;-45
2023/09/12 05:16:00;;;;;;;;;;;;;;;23.70;43.73;101000.66;7402688;19;1094;-45
2023/09/12 05:18:28;;;;;;;;;;;;;;;23.72;43.64;101010.28;7403213;19;1361;-44
2023/09/12 05:20:56;;;;;;;;;;;;;;;23.82;43.49;101008.31;7401215;19;1910;-45
2023/09/12 05:23:25;;;;;;;;;;;;;;;23.87;43.37;101007.00;7396763;19;1731;-45
2023/09/12 05:25:53;;;;;;;;;;;;;;;23.83;43.64;100990.25;7397981;19;1852;-45
2023/09/12 05:28:24;;;;;;;;;;;;;;;23.93;43.34;101004.47;7400319;19;1631;-44
2023/09/12 05:30:52;;;;;;;;;;;;;;;23.90;43.57;101018.31;7399672;19;1552;-45
2023/09/12 05:33:21;;;;;;;;;;;;;;;23.80;43.94;101002.25;7397429;19;1819;-44
2023/09/12 05:35:49;;;;;;;;;;;;;;;23.86;44.31;101010.72;7389915;19;1588;-47
2023/09/12 05:38:17;;;;;;;;;;;;;;;23.93;43.85;101001.78;7371040;19;1395;-46
2023/09/12 05:40:46;;;;;;;;;;;;;;;24.03;43.86;101012.47;7393854;19;1610;-47
2023/09/12 05:43:14;;;;;;;;;;;;;;;23.90;43.86;101012.09;7399126;19;1643;-47
2023/09/12 05:45:45;;;;;;;;;;;;;;;23.90;44.07;101018.31;7398863;19;1845;-46
2023/09/12 05:48:13;;;;;;;;;;;;;;;23.94;44.01;101011.59;7399007;19;1461;-46
2023/09/12 05:50:42;;;;;;;;;;;;;;;24.05;43.94;101013.13;7400035;19;1760;-46
2023/09/12 05:53:11;;;;;;;;;;;;;;;24.05;43.72;101009.59;7399235;19;1508;-47
2023/09/12 05:55:39;;;;;;;;;;;;;;;24.01;43.98;101022.56;7400335;19;1752;-47
2023/09/12 05:58:08;;;;;;;;;;;;;;;24.01;43.77;101009.06;7397808;19;1375;-47
2023/09/12 06:00:36;;;;;;;;;;;;;;;23.98;44.09;101007.56;7400781;19;1477;-46
2023/09/12 06:03:07;;;;;;;;;;;;;;;24.02;43.88;101011.63;7400692;19;1743;-46
2023/09/12 06:05:35;;;;;;;;;;;;;;;24.03;43.80;101007.06;7396801;19;1840;-44
2023/09/12 06:08:04;;;;;;;;;;;;;;;24.10;43.79;101020.78;7397417;19;1415;-44
2023/09/12 06:10:33;;;;;;;;;;;;;;;24.17;43.80;101011.84;7395883;19;1499;-44
2023/09/12 06:13:02;;;;;;;;;;;;;;;24.10;43.89;101013.50;7399900;19;1672;-44
2023/09/12 06:15:30;;;;;;;;;;;;;;;24.04;44.07;101014.16;7398649;19;1290;-44
2023/09/12 06:17:59;;;;;;;;;;;;;;;23.98;44.36;101004.00;7399450;19;1534;-44
2023/09/12 06:20:30;;;;;;;;;;;;;;;23.93;43.99;101009.03;7397511;19;1562;-44
2023/09/12 06:22:59;;;;;;;;;;;;;;;23.85;44.19;100998.22;7398716;19;1574;-44
2023/09/12 06:25:28;;;;;;;;;;;;;;;24.02;44.25;101005.38;7395475;19;1855;-45
2023/09/12 06:27:57;;;;;;;;;;;;;;;23.99;44.27;101016.50;7395765;19;1424;-44
2023/09/12 06:30:25;;;;;;;;;;;;;;;24.19;45.00;101012.53;7399826;19;1569;-44
2023/09/12 06:32:53;;;;;;;;;;;;;;;24.32;44.26;101016.63;7399889;19;1825;-45
2023/09/12 06:35:22;;;;;;;;;;;;;;;24.32;45.23;101013.91;7399628;19;1483;-44
2023/09/12 06:37:53;;;;;;;;;;;;;;;24.39;44.39;101012.22;7399752;19;1527;-44
2023/09/12 06:40:21;;;;;;;;;;;;;;;24.42;44.83;101015.44;7399434;19;1479;-44
2023/09/12 06:42:50;;;;;;;;;;;;;;;24.43;45.83;101013.59;7399166;19;1844;-44
2023/09/12 06:45:18;;;;;;;;;;;;;;;24.33;45.11;101024.56;7397705;19;1859;-44
2023/09/12 06:47:46;;;;;;;;;;;;;;;24.44;45.01;101022.56;7397145;19;1561;-43
2023/09/12 06:50:15;;;;;;;;;;;;;;;24.61;44.87;101011.66;7399362;19;1207;-44
2023/09/12 06:52:43;;;;;;;;;;;;;;;24.60;45.13;101026.16;7398767;19;1558;-45
2023/09/12 06:55:14;;;;;;;;;;;;;;;24.59;45.72;101026.31;7397689;19;1572;-44
2023/09/12 06:57:43;;;;;;;;;;;;;;;24.67;46.26;101030.91;7399629;19;1632;-44
2023/09/12 07:00:12;;;;;;;;;;;;;;;24.57;47.27;101031.91;7400045;19;1128;-44
2023/09/12 07:02:40;;;;;;;;;;;;;;;24.68;46.88;101016.38;7399168;19;1538;-44
2023/09/12 07:05:09;;;;;;;;;;;;;;;24.70;46.85;101036.84;7397932;19;1837;-44
2023/09/12 07:07:37;;;;;;;;;;;;;;;24.78;47.42;101025.19;7398153;19;1581;-44
2023/09/12 07:10:06;;;;;;;;;;;;;;;24.94;46.69;101027.88;7397204;19;1513;-43
2023/09/12 07:12:37;;;;;;;;;;;;;;;24.86;47.02;101025.19;7382866;19;1554;-43
2023/09/12 07:15:05;;;;;;;;;;;;;;;24.80;47.54;101023.16;7397161;19;1587;-45
2023/09/12 07:17:34;;;;;;;;;;;;;;;24.84;46.10;101029.91;7396486;19;1505;-44
2023/09/12 07:20:02;;;;;;;;;;;;;;;24.72;47.74;101037.50;7397756;19;1640;-43
2023/09/12 07:22:30;;;;;;;;;;;;;;;24.75;46.07;101039.03;7397538;19;1813;-44
2023/09/12 07:25:02;;;;;;;;;;;;;;;24.92;45.56;101023.69;7397479;19;1834;-44
2023/09/12 07:27:31;;;;;;;;;;;;;;;25.06;44.11;101030.28;7397402;19;1503;-43
2023/09/12 07:30:02;;;;;;;;;;;;;;;25.09;44.02;101025.38;7397849;19;1395;-44
2023/09/12 07:32:30;;;;;;;;;;;;;;;25.01;44.43;101030.78;7397687;19;1565;-43
2023/09/12 07:34:59;;;;;;;;;;;;;;;25.00;46.57;101029.91;7395975;19;1140;-44
2023/09/12 07:37:27;;;;;;;;;;;;;;;25.08;44.96;101030.94;7385573;19;1507;-43
2023/09/12 07:39:55;;;;;;;;;;;;;;;25.12;45.67;101024.19;7391793;19;1824;-43
2023/09/12 07:42:24;;;;;;;;;;;;;;;25.16;45.30;101030.94;7389999;19;1975;-43
2023/09/12 07:44:53;;;;;;;;;;;;;;;25.24;45.43;101032.84;7393641;19;1868;-43
2023/09/12 07:47:24;;;;;;;;;;;;;;;24.70;45.57;100949.47;7391992;19;1496;-43
2023/09/12 07:49:55;;;;;;;;;;;;;;;25.21;45.34;101017.75;7388136;19;1478;-43
2023/09/12 07:52:24;;;;;;;;;;;;;;;25.27;45.17;101018.94;7390478;19;1432;-45
2023/09/12 07:54:57;;;;;;;;;;;;;;;24.97;45.29;101021.31;7391207;19;1739;-44
2023/09/12 07:57:25;;;;;;;;;;;;;;;25.02;45.11;101008.13;7392233;19;1732;-43
2023/09/12 07:59:53;;;;;;;;;;;;;;;25.16;44.63;101018.25;7389997;19;1641;-43
2023/09/12 08:02:24;;;;;;;;;;;;;;;25.17;45.02;101024.53;7393062;19;1595;-43
2023/09/12 08:04:53;;;;;;;;;;;;;;;25.20;45.05;101010.63;7391302;19;1893;-44
2023/09/12 08:07:21;;;;;;;;;;;;;;;25.05;45.42;101009.63;7395861;19;1999;-44
2023/09/12 08:09:51;;;;;;;;;;;;;;;24.98;46.43;101023.84;7395924;19;1954;-45
2023/09/12 08:12:19;;;;;;;;;;;;;;;24.24;45.78;100955.28;7391666;19;1617;-44
2023/09/12 08:14:48;;;;;;;;;;;;;;;24.85;46.47;101028.91;7382307;19;1463;-44
2023/09/12 08:17:16;;;;;;;;;;;;;;;24.73;47.58;101032.94;7392825;19;1456;-44
2023/09/12 08:19:48;;;;;;;;;;;;;;;24.60;47.98;101015.34;7393224;19;1423;-45
2023/09/12 08:22:16;;;;;;;;;;;;;;;24.63;48.03;101037.66;7389598;19;1560;-45
2023/09/12 08:24:44;;;;;;;;;;;;;;;24.58;48.22;101028.19;7392977;19;1866;-45
2023/09/12 08:27:13;;;;;;;;;;;;;;;24.55;48.10;101023.13;7393588;19;1526;-43
2023/09/12 08:29:42;;;;;;;;;;;;;;;24.58;48.13;101027.34;7392472;19;1851;-45
2023/09/12 08:32:10;;;;;;;;;;;;;;;24.55;48.16;101016.84;7392457;19;1775;-45
2023/09/12 08:34:38;;;;;;;;;;;;;;;24.53;48.23;101002.66;7393556;19;1756;-44
2023/09/12 08:37:09;;;;;;;;;;;;;;;24.54;48.28;101015.19;7393006;19;1720;-45
2023/09/12 08:39:43;;;;;;;;;;;;;;;24.55;48.47;101015.03;7389398;19;1856;-44
2023/09/12 08:42:14;;;;;;;;;;;;;;;24.54;48.20;101009.78;7390702;19;1743;-43
2023/09/12 08:44:42;;;;;;;;;;;;;;;24.55;48.27;101011.44;7393128;19;1857;-45
2023/09/12 08:47:12;;;;;;;;;;;;;;;24.57;48.30;101020.25;7388365;19;1554;-43
2023/09/12 08:49:42;;;;;;;;;;;;;;;24.56;48.36;101003.19;7389873;19;1650;-45
2023/09/12 08:52:13;;;;;;;;;;;;;;;24.66;47.97;101013.84;7391071;19;1492;-44
2023/09/12 08:54:41;;;;;;;;;;;;;;;24.63;47.78;101014.19;7395319;19;1753;-45
2023/09/12 08:57:10;;;;;;;;;;;;;;;24.58;48.26;101032.75;7395774;19;1597;-43
2023/09/12 08:59:39;;;;;;;;;;;;;;;24.57;48.19;101004.88;7396128;19;1810;-44
2023/09/12 09:02:12;;;;;;;;;;;;;;;24.59;48.35;101019.09;7394963;19;1672;-44
2023/09/12 09:04:42;;;;;;;;;;;;;;;24.59;48.31;101016.38;7395542;19;1756;-43
2023/09/12 09:07:13;;;;;;;;;;;;;;;24.55;48.35;101004.22;7392939;19;1849;-45
2023/09/12 09:09:41;;;;;;;;;;;;;;;24.60;48.31;101007.25;7396027;19;1732;-44
2023/09/12 09:12:10;;;;;;;;;;;;;;;24.58;48.35;100995.75;7395551;19;1739;-45
2023/09/12 09:14:38;;;;;;;;;;;;;;;24.59;48.34;100997.44;7379644;19;1615;-43
2023/09/12 09:17:10;;;;;;;;;;;;;;;24.60;48.25;100996.41;7394433;19;1973;-44
2023/09/12 09:19:45;;;;;;;;;;;;;;;24.63;48.55;101002.50;7394591;19;1453;-44
2023/09/12 09:22:16;;;;;;;;;;;;;;;24.61;48.39;100999.97;7392235;19;1808;-44
2023/09/12 09:24:45;;;;;;;;;;;;;;;24.58;48.31;101001.16;7395030;19;1826;-45
2023/09/12 09:27:13;;;;;;;;;;;;;;;24.64;48.42;101002.34;7393422;19;1837;-45
2023/09/12 09:29:50;;;;;;;;;;;;;;;24.64;48.26;100993.41;7395277;19;1807;-45
2023/09/12 09:32:22;;;;;;;;;;;;;;;24.64;48.17;100990.69;7396855;19;1690;-45
2023/09/12 09:34:50;;;;;;;;;;;;;;;24.63;48.38;100987.16;7401911;19;1798;-45
2023/09/12 09:37:22;;;;;;;;;;;;;;;24.58;48.28;100990.34;7400027;19;1452;-44
2023/09/12 09:39:52;;;;;;;;;;;;;;;24.63;48.42;101000.69;7401377;19;1593;-44
2023/09/12 09:42:20;;;;;;;;;;;;;;;24.60;48.27;100991.00;7400729;19;1590;-45
2023/09/12 09:44:48;;;;;;;;;;;;;;;24.60;48.33;100982.91;7401206;19;1522;-44
2023/09/12 09:47:17;;;;;;;;;;;;;;;24.61;48.41;100987.31;7398243;19;1951;-43
2023/09/12 09:49:47;;;;;;;;;;;;;;;24.61;48.43;100979.19;7400873;19;1634;-44
2023/09/12 09:52:16;;;;;;;;;;;;;;;24.64;48.35;100982.59;7400581;19;1452;-44
2023/09/12 09:54:48;;;;;;;;;;;;;;;24.64;48.54;100988.00;7400969;19;1538;-45
2023/09/12 09:57:16;;;;;;;;;;;;;;;24.64;48.41;100988.00;7401765;19;1614;-45
2023/09/12 09:59:51;;;;;;;;;;;;;;;24.64;48.20;100983.41;7400802;19;1565;-43
2023/09/12 10:02:22;;;;;;;;;;;;;;;24.67;48.48;100983.09;7401810;19;1733;-43
2023/09/12 10:04:51;;;;;;;;;;;;;;;24.64;48.44;100969.91;7400942;19;1899;-45
2023/09/12 10:07:20;;;;;;;;;;;;;;;24.65;48.44;100978.84;7397714;19;1934;-43
2023/09/12 10:09:51;;;;;;;;;;;;;;;24.66;48.58;100959.75;7400316;19;1802;-44
2023/09/12 10:12:19;;;;;;;;;;;;;;;24.65;48.54;100968.91;7400888;19;1719;-43
2023/09/12 10:14:48;;;;;;;;;;;;;;;24.63;48.46;100957.41;7385581;19;1768;-43
2023/09/12 10:17:20;;;;;;;;;;;;;;;24.65;48.44;100968.03;7399334;19;1834;-44
2023/09/12 10:19:54;;;;;;;;;;;;;;;24.66;48.74;100961.63;7400669;19;1863;-45
2023/09/12 10:22:23;;;;;;;;;;;;;;;24.64;48.58;100956.38;7400073;19;1958;-43
2023/09/12 10:24:56;;;;;;;;;;;;;;;24.61;48.36;100957.56;7399784;19;2092;-45
2023/09/12 10:27:25;;;;;;;;;;;;;;;24.67;48.63;100966.00;7398978;19;2062;-44
2023/09/12 10:29:53;;;;;;;;;;;;;;;24.63;48.57;100949.28;7399887;19;1843;-44
2023/09/12 10:32:22;;;;;;;;;;;;;;;24.65;48.50;100955.38;7399424;19;1074;-43
2023/09/12 10:34:51;;;;;;;;;;;;;;;24.71;48.60;100961.94;7399835;19;1889;-44
2023/09/12 10:37:21;;;;;;;;;;;;;;;24.67;48.59;100964.16;7399292;19;1876;-45
2023/09/12 10:39:51;;;;;;;;;;;;;;;24.69;48.48;100948.63;7398752;19;1866;-43
2023/09/12 10:42:23;;;;;;;;;;;;;;;24.67;48.50;100953.34;7399886;19;1808;-44
2023/09/12 10:44:53;;;;;;;;;;;;;;;24.69;48.42;100947.75;7397882;19;1788;-44
2023/09/12 10:47:21;;;;;;;;;;;;;;;24.70;48.60;100954.88;7396573;19;1838;-43
2023/09/12 10:49:50;;;;;;;;;;;;;;;24.68;48.67;100941.50;7398524;19;1843;-45
2023/09/12 10:52:26;;;;;;;;;;;;;;;24.70;48.54;100938.63;7398220;19;1824;-45
2023/09/12 10:54:55;;;;;;;;;;;;;;;24.72;48.62;100950.13;7397422;19;1522;-43
2023/09/12 10:57:26;;;;;;;;;;;;;;;24.69;48.62;100934.22;7399830;19;1502;-45
2023/09/12 11:00:10;;;;;;;;;;;;;;;24.69;48.55;100932.41;7398200;19;1537;-44
2023/09/12 11:02:39;;;;;;;;;;;;;;;24.73;48.40;100936.44;7399448;19;1478;-45
2023/09/12 11:05:08;;;;;;;;;;;;;;;24.73;48.65;100943.69;7399417;19;1187;-44
2023/09/12 11:07:46;;;;;;;;;;;;;;;24.73;48.44;100932.88;7396122;19;1854;-45
2023/09/12 11:10:24;;;;;;;;;;;;;;;24.71;48.51;100916.84;7398691;19;1527;-45
2023/09/12 11:12:56;;;;;;;;;;;;;;;24.73;48.71;100932.88;7398092;19;1497;-44
2023/09/12 11:15:25;;;;;;;;;;;;;;;24.74;48.37;100915.66;7383322;19;1491;-45
2023/09/12 11:18:02;;;;;;;;;;;;;;;24.73;48.63;100925.63;7398224;19;1423;-45
2023/09/12 11:20:52;;;;;;;;;;;;;;;24.73;48.79;100922.06;7398442;19;1766;-45
2023/09/12 11:23:20;;;;;;;;;;;;;;;24.68;48.85;100909.06;7398846;19;1803;-45
2023/09/12 11:25:49;;;;;;;;;;;;;;;24.71;48.83;100915.97;7398711;19;1864;-44
2023/09/12 11:28:21;;;;;;;;;;;;;;;24.71;48.70;100903.31;7398435;19;1235;-45
2023/09/12 11:30:59;;;;;;;;;;;;;;;24.69;48.86;100904.47;7397400;19;1922;-45
2023/09/12 11:33:29;;;;;;;;;;;;;;;24.68;48.79;100906.34;7397406;19;1785;-45
2023/09/12 11:35:57;;;;;;;;;;;;;;;24.74;48.86;100905.66;7398415;19;1685;-45
2023/09/12 11:38:30;;;;;;;;;;;;;;;24.70;48.89;100896.22;7397546;19;1627;-45
2023/09/12 11:40:59;;;;;;;;;;;;;;;24.70;48.73;100896.22;7396961;19;1549;-44
2023/09/12 11:43:32;;;;;;;;;;;;;;;24.74;48.77;100899.41;7397084;19;1668;-44
2023/09/12 11:46:00;;;;;;;;;;;;;;;24.71;49.05;100891.63;7396692;19;1876;-44
2023/09/12 11:48:31;;;;;;;;;;;;;;;24.86;48.54;100892.66;7398039;19;1129;-45
2023/09/12 11:51:01;;;;;;;;;;;;;;;24.78;48.67;100887.25;7398252;19;1831;-45
2023/09/12 11:53:35;;;;;;;;;;;;;;;24.75;48.82;100901.09;7393749;19;1958;-45
2023/09/12 11:56:03;;;;;;;;;;;;;;;24.75;48.87;100892.97;7394417;19;1963;-45
2023/09/12 11:58:34;;;;;;;;;;;;;;;24.70;48.90;100871.88;7396326;19;1828;-44
2023/09/12 12:01:03;;;;;;;;;;;;;;;24.71;49.21;100875.41;7397332;19;1818;-44
2023/09/12 12:03:31;;;;;;;;;;;;;;;24.71;48.93;100878.13;7393601;19;1605;-44
2023/09/12 12:05:59;;;;;;;;;;;;;;;24.72;48.91;100879.81;7398119;19;1857;-44
2023/09/12 12:08:28;;;;;;;;;;;;;;;24.73;48.85;100878.78;7396708;19;1863;-44
2023/09/12 12:10:57;;;;;;;;;;;;;;;24.72;48.86;100869.00;7396486;19;1808;-44
2023/09/12 12:13:27;;;;;;;;;;;;;;;24.69;48.96;100867.50;7395611;19;1854;-44
2023/09/12 12:15:58;;;;;;;;;;;;;;;24.73;49.07;100867.97;7385958;19;1740;-45
2023/09/12 12:18:27;;;;;;;;;;;;;;;24.73;49.00;100865.28;7396125;19;1733;-45
2023/09/12 12:20:55;;;;;;;;;;;;;;;24.72;49.07;100861.72;7396078;19;1833;-44
2023/09/12 12:23:23;;;;;;;;;;;;;;;24.72;49.04;100869.84;7395007;19;1831;-43
2023/09/12 12:25:52;;;;;;;;;;;;;;;24.74;48.96;100858.84;7395588;19;1814;-44
2023/09/12 12:28:20;;;;;;;;;;;;;;;24.73;48.90;100863.44;7396002;19;1059;-45
2023/09/12 12:30:49;;;;;;;;;;;;;;;24.73;49.20;100862.56;7393438;19;1855;-45
2023/09/12 12:33:19;;;;;;;;;;;;;;;24.74;49.17;100853.44;7388670;19;1819;-44
2023/09/12 12:35:49;;;;;;;;;;;;;;;24.73;49.17;100852.63;7390984;19;2127;-45
2023/09/12 12:38:18;;;;;;;;;;;;;;;24.73;49.05;100862.56;7393713;19;1867;-45
2023/09/12 12:40:47;;;;;;;;;;;;;;;24.75;48.90;100855.13;7396413;19;1577;-43
2023/09/12 12:43:19;;;;;;;;;;;;;;;24.72;49.18;100845.50;7396174;19;1676;-44
2023/09/12 12:45:55;;;;;;;;;;;;;;;24.73;48.89;100867.97;7396483;19;1501;-43
2023/09/12 12:48:36;;;;;;;;;;;;;;;24.73;49.25;100846.34;7391374;19;1853;-43
2023/09/12 12:51:16;;;;;;;;;;;;;;;24.72;49.23;100844.66;7396440;19;1488;-44
2023/09/12 12:53:45;;;;;;;;;;;;;;;24.74;48.93;100858.84;7396607;19;1343;-44
2023/09/12 12:56:18;;;;;;;;;;;;;;;24.75;49.29;100849.72;7395192;19;1827;-44
2023/09/12 12:58:50;;;;;;;;;;;;;;;24.75;49.09;100863.22;7395991;19;1729;-44
2023/09/12 13:01:19;;;;;;;;;;;;;;;24.74;49.22;100831.81;7396720;19;1736;-44